sensor_id;sensor_type;location;lat;lon;timestamp;P1;durP1;ratioP1;P2;durP2;ratioP2
2408;SDS011;8463;48.094;7.970;2023-02-21T00:01:56;1.63;;;1.53;;
2408;SDS011;8463;48.094;7.970;2023-02-21T00:04:41;2.30;;;2.10;;
2408;SDS011;8463;48.094;7.970;2023-02-21T00:07:25;2.30;;;1.57;;
2408;SDS011;8463;48.094;7.970;2023-02-21T00:10:11;2.30;;;1.80;;
2408;SDS011;8463;48.094;7.970;2023-02-21T00:12:58;3.43;;;2.07;;
2408;SDS011;8463;48.094;7.970;2023-02-21T00:15:42;7.47;;;2.40;;
2408;SDS011;8463;48.094;7.970;2023-02-21T00:18:26;2.63;;;1.67;;
2408;SDS011;8463;48.094;7.970;2023-02-21T00:21:10;2.93;;;2.67;;
2408;SDS011;8463;48.094;7.970;2023-02-21T00:23:54;2.90;;;2.30;;
2408;SDS011;8463;48.094;7.970;2023-02-21T00:26:38;3.93;;;2.27;;
2408;SDS011;8463;48.094;7.970;2023-02-21T00:29:22;2.50;;;2.30;;
2408;SDS011;8463;48.094;7.970;2023-02-21T00:32:06;2.60;;;2.33;;
2408;SDS011;8463;48.094;7.970;2023-02-21T00:34:50;3.80;;;2.47;;
2408;SDS011;8463;48.094;7.970;2023-02-21T00:37:41;4.97;;;2.30;;
2408;SDS011;8463;48.094;7.970;2023-02-21T00:40:25;4.50;;;2.70;;
2408;SDS011;8463;48.094;7.970;2023-02-21T00:43:09;2.97;;;2.13;;
2408;SDS011;8463;48.094;7.970;2023-02-21T00:45:53;4.10;;;2.43;;
2408;SDS011;8463;48.094;7.970;2023-02-21T00:48:37;2.90;;;1.87;;
2408;SDS011;8463;48.094;7.970;2023-02-21T00:51:21;2.03;;;1.57;;
2408;SDS011;8463;48.094;7.970;2023-02-21T00:54:05;3.40;;;1.63;;
2408;SDS011;8463;48.094;7.970;2023-02-21T00:56:49;2.97;;;2.10;;
2408;SDS011;8463;48.094;7.970;2023-02-21T00:59:36;2.03;;;1.50;;
2408;SDS011;8463;48.094;7.970;2023-02-21T01:02:20;2.20;;;1.93;;
2408;SDS011;8463;48.094;7.970;2023-02-21T01:05:04;2.97;;;2.77;;
2408;SDS011;8463;48.094;7.970;2023-02-21T01:07:49;3.70;;;1.90;;
2408;SDS011;8463;48.094;7.970;2023-02-21T01:10:32;2.17;;;1.83;;
2408;SDS011;8463;48.094;7.970;2023-02-21T01:13:19;3.37;;;1.50;;
2408;SDS011;8463;48.094;7.970;2023-02-21T01:16:05;2.07;;;1.60;;
2408;SDS011;8463;48.094;7.970;2023-02-21T01:18:50;3.23;;;2.07;;
2408;SDS011;8463;48.094;7.970;2023-02-21T01:21:34;1.87;;;1.73;;
2408;SDS011;8463;48.094;7.970;2023-02-21T01:24:18;3.37;;;2.13;;
2408;SDS011;8463;48.094;7.970;2023-02-21T01:27:02;3.10;;;1.70;;
2408;SDS011;8463;48.094;7.970;2023-02-21T01:29:46;6.10;;;1.90;;
2408;SDS011;8463;48.094;7.970;2023-02-21T01:32:30;2.17;;;1.53;;
2408;SDS011;8463;48.094;7.970;2023-02-21T01:35:14;2.87;;;1.83;;
2408;SDS011;8463;48.094;7.970;2023-02-21T01:37:58;3.70;;;1.70;;
2408;SDS011;8463;48.094;7.970;2023-02-21T01:40:43;3.30;;;1.83;;
2408;SDS011;8463;48.094;7.970;2023-02-21T01:43:27;1.60;;;1.40;;
2408;SDS011;8463;48.094;7.970;2023-02-21T01:46:21;2.53;;;1.57;;
2408;SDS011;8463;48.094;7.970;2023-02-21T01:49:09;3.47;;;2.17;;
2408;SDS011;8463;48.094;7.970;2023-02-21T01:51:58;2.73;;;1.57;;
2408;SDS011;8463;48.094;7.970;2023-02-21T01:54:48;1.90;;;1.53;;
2408;SDS011;8463;48.094;7.970;2023-02-21T01:57:36;1.50;;;1.40;;
2408;SDS011;8463;48.094;7.970;2023-02-21T02:00:22;3.67;;;1.50;;
2408;SDS011;8463;48.094;7.970;2023-02-21T02:03:08;3.63;;;2.27;;
2408;SDS011;8463;48.094;7.970;2023-02-21T02:05:57;2.23;;;1.90;;
2408;SDS011;8463;48.094;7.970;2023-02-21T02:08:44;4.23;;;2.77;;
2408;SDS011;8463;48.094;7.970;2023-02-21T02:11:49;1.83;;;1.50;;
2408;SDS011;8463;48.094;7.970;2023-02-21T02:35:08;1.30;;;1.20;;
2408;SDS011;8463;48.094;7.970;2023-02-21T02:43:32;3.33;;;2.10;;
2408;SDS011;8463;48.094;7.970;2023-02-21T02:46:13;1.77;;;1.50;;
2408;SDS011;8463;48.094;7.970;2023-02-21T02:49:03;1.73;;;1.37;;
2408;SDS011;8463;48.094;7.970;2023-02-21T02:51:36;2.43;;;1.30;;
2408;SDS011;8463;48.094;7.970;2023-02-21T02:54:02;1.50;;;1.13;;
2408;SDS011;8463;48.094;7.970;2023-02-21T02:56:28;3.90;;;1.80;;
2408;SDS011;8463;48.094;7.970;2023-02-21T02:59:27;3.90;;;1.57;;
2408;SDS011;8463;48.094;7.970;2023-02-21T03:07:31;3.40;;;1.47;;
2408;SDS011;8463;48.094;7.970;2023-02-21T03:10:13;1.80;;;1.00;;
2408;SDS011;8463;48.094;7.970;2023-02-21T03:13:17;2.50;;;1.77;;
2408;SDS011;8463;48.094;7.970;2023-02-21T03:15:54;3.03;;;2.70;;
2408;SDS011;8463;48.094;7.970;2023-02-21T03:18:32;1.67;;;1.53;;
2408;SDS011;8463;48.094;7.970;2023-02-21T03:21:22;2.33;;;1.70;;
2408;SDS011;8463;48.094;7.970;2023-02-21T03:23:53;4.63;;;1.37;;
2408;SDS011;8463;48.094;7.970;2023-02-21T03:26:24;2.07;;;1.60;;
2408;SDS011;8463;48.094;7.970;2023-02-21T03:28:52;1.20;;;1.10;;
2408;SDS011;8463;48.094;7.970;2023-02-21T03:31:18;2.23;;;1.60;;
2408;SDS011;8463;48.094;7.970;2023-02-21T03:33:48;1.87;;;1.43;;
2408;SDS011;8463;48.094;7.970;2023-02-21T03:36:16;2.60;;;1.50;;
2408;SDS011;8463;48.094;7.970;2023-02-21T03:38:42;1.97;;;1.70;;
2408;SDS011;8463;48.094;7.970;2023-02-21T03:41:08;2.13;;;1.63;;
2408;SDS011;8463;48.094;7.970;2023-02-21T03:43:35;2.20;;;1.53;;
2408;SDS011;8463;48.094;7.970;2023-02-21T03:46:01;4.00;;;1.50;;
2408;SDS011;8463;48.094;7.970;2023-02-21T03:48:27;2.97;;;1.60;;
2408;SDS011;8463;48.094;7.970;2023-02-21T03:50:52;2.40;;;1.20;;
2408;SDS011;8463;48.094;7.970;2023-02-21T03:53:18;1.73;;;1.50;;
2408;SDS011;8463;48.094;7.970;2023-02-21T03:55:44;2.03;;;1.33;;
2408;SDS011;8463;48.094;7.970;2023-02-21T03:58:09;2.27;;;1.10;;
2408;SDS011;8463;48.094;7.970;2023-02-21T04:00:35;1.37;;;1.27;;
2408;SDS011;8463;48.094;7.970;2023-02-21T04:03:03;1.43;;;1.33;;
2408;SDS011;8463;48.094;7.970;2023-02-21T04:05:31;2.03;;;1.33;;
2408;SDS011;8463;48.094;7.970;2023-02-21T04:07:56;3.97;;;1.57;;
2408;SDS011;8463;48.094;7.970;2023-02-21T04:10:22;2.83;;;1.47;;
2408;SDS011;8463;48.094;7.970;2023-02-21T04:12:48;2.37;;;1.50;;
2408;SDS011;8463;48.094;7.970;2023-02-21T04:15:13;1.60;;;1.50;;
2408;SDS011;8463;48.094;7.970;2023-02-21T04:17:39;3.97;;;2.07;;
2408;SDS011;8463;48.094;7.970;2023-02-21T04:20:05;2.90;;;1.60;;
2408;SDS011;8463;48.094;7.970;2023-02-21T04:22:31;1.90;;;1.70;;
2408;SDS011;8463;48.094;7.970;2023-02-21T04:24:56;2.03;;;1.73;;
2408;SDS011;8463;48.094;7.970;2023-02-21T04:27:22;2.10;;;1.50;;
2408;SDS011;8463;48.094;7.970;2023-02-21T04:29:48;2.20;;;1.17;;
2408;SDS011;8463;48.094;7.970;2023-02-21T04:32:13;2.70;;;1.90;;
2408;SDS011;8463;48.094;7.970;2023-02-21T04:34:41;2.33;;;1.70;;
2408;SDS011;8463;48.094;7.970;2023-02-21T04:37:09;3.90;;;1.43;;
2408;SDS011;8463;48.094;7.970;2023-02-21T04:39:35;2.07;;;1.60;;
2408;SDS011;8463;48.094;7.970;2023-02-21T04:42:00;2.20;;;1.57;;
2408;SDS011;8463;48.094;7.970;2023-02-21T04:44:26;1.80;;;1.50;;
2408;SDS011;8463;48.094;7.970;2023-02-21T04:46:52;1.63;;;1.30;;
2408;SDS011;8463;48.094;7.970;2023-02-21T04:49:17;1.50;;;1.17;;
2408;SDS011;8463;48.094;7.970;2023-02-21T04:51:43;1.80;;;1.50;;
2408;SDS011;8463;48.094;7.970;2023-02-21T04:54:09;2.00;;;1.73;;
2408;SDS011;8463;48.094;7.970;2023-02-21T04:56:34;2.30;;;1.97;;
2408;SDS011;8463;48.094;7.970;2023-02-21T04:59:01;1.90;;;1.70;;
2408;SDS011;8463;48.094;7.970;2023-02-21T05:01:28;2.70;;;2.50;;
2408;SDS011;8463;48.094;7.970;2023-02-21T05:03:55;2.30;;;2.10;;
2408;SDS011;8463;48.094;7.970;2023-02-21T05:06:22;2.53;;;1.93;;
2408;SDS011;8463;48.094;7.970;2023-02-21T05:08:49;2.00;;;1.80;;
2408;SDS011;8463;48.094;7.970;2023-02-21T05:11:16;4.77;;;1.67;;
2408;SDS011;8463;48.094;7.970;2023-02-21T05:13:49;1.90;;;1.30;;
2408;SDS011;8463;48.094;7.970;2023-02-21T05:16:15;1.37;;;1.27;;
2408;SDS011;8463;48.094;7.970;2023-02-21T05:18:41;3.60;;;2.27;;
2408;SDS011;8463;48.094;7.970;2023-02-21T05:21:08;4.17;;;2.80;;
2408;SDS011;8463;48.094;7.970;2023-02-21T05:23:34;2.73;;;2.13;;
2408;SDS011;8463;48.094;7.970;2023-02-21T05:26:06;2.90;;;2.00;;
2408;SDS011;8463;48.094;7.970;2023-02-21T05:28:33;4.70;;;1.83;;
2408;SDS011;8463;48.094;7.970;2023-02-21T05:31:00;4.00;;;1.70;;
2408;SDS011;8463;48.094;7.970;2023-02-21T05:33:25;3.73;;;1.67;;
2408;SDS011;8463;48.094;7.970;2023-02-21T05:35:51;3.63;;;2.10;;
2408;SDS011;8463;48.094;7.970;2023-02-21T05:38:17;3.13;;;1.73;;
2408;SDS011;8463;48.094;7.970;2023-02-21T05:40:46;2.20;;;1.70;;
2408;SDS011;8463;48.094;7.970;2023-02-21T05:43:11;4.17;;;1.80;;
2408;SDS011;8463;48.094;7.970;2023-02-21T05:45:40;8.67;;;2.57;;
2408;SDS011;8463;48.094;7.970;2023-02-21T05:48:06;3.57;;;1.83;;
2408;SDS011;8463;48.094;7.970;2023-02-21T05:50:33;5.40;;;1.73;;
2408;SDS011;8463;48.094;7.970;2023-02-21T05:52:59;2.93;;;1.73;;
2408;SDS011;8463;48.094;7.970;2023-02-21T05:55:25;3.13;;;2.13;;
2408;SDS011;8463;48.094;7.970;2023-02-21T05:57:52;2.40;;;2.17;;
2408;SDS011;8463;48.094;7.970;2023-02-21T06:00:19;2.93;;;1.90;;
2408;SDS011;8463;48.094;7.970;2023-02-21T06:02:49;2.67;;;1.70;;
2408;SDS011;8463;48.094;7.970;2023-02-21T06:05:16;7.30;;;4.77;;
2408;SDS011;8463;48.094;7.970;2023-02-21T06:07:42;5.50;;;3.83;;
2408;SDS011;8463;48.094;7.970;2023-02-21T06:10:08;3.43;;;2.67;;
2408;SDS011;8463;48.094;7.970;2023-02-21T06:12:34;2.50;;;2.00;;
2408;SDS011;8463;48.094;7.970;2023-02-21T06:15:00;2.83;;;2.53;;
2408;SDS011;8463;48.094;7.970;2023-02-21T06:17:26;2.67;;;2.47;;
2408;SDS011;8463;48.094;7.970;2023-02-21T06:19:54;5.90;;;3.33;;
2408;SDS011;8463;48.094;7.970;2023-02-21T06:22:20;4.27;;;3.00;;
2408;SDS011;8463;48.094;7.970;2023-02-21T06:24:47;2.97;;;2.70;;
2408;SDS011;8463;48.094;7.970;2023-02-21T06:27:12;1.97;;;1.77;;
2408;SDS011;8463;48.094;7.970;2023-02-21T06:29:39;2.23;;;2.03;;
2408;SDS011;8463;48.094;7.970;2023-02-21T06:32:05;2.30;;;2.10;;
2408;SDS011;8463;48.094;7.970;2023-02-21T06:34:31;4.87;;;2.80;;
2408;SDS011;8463;48.094;7.970;2023-02-21T06:36:57;4.47;;;2.57;;
2408;SDS011;8463;48.094;7.970;2023-02-21T06:39:22;4.53;;;2.50;;
2408;SDS011;8463;48.094;7.970;2023-02-21T06:41:48;4.70;;;2.60;;
2408;SDS011;8463;48.094;7.970;2023-02-21T06:44:15;3.70;;;2.00;;
2408;SDS011;8463;48.094;7.970;2023-02-21T06:46:41;3.80;;;1.80;;
2408;SDS011;8463;48.094;7.970;2023-02-21T06:49:07;3.10;;;2.00;;
2408;SDS011;8463;48.094;7.970;2023-02-21T06:51:34;3.10;;;2.10;;
2408;SDS011;8463;48.094;7.970;2023-02-21T06:54:04;3.20;;;2.33;;
2408;SDS011;8463;48.094;7.970;2023-02-21T06:56:31;2.53;;;2.33;;
2408;SDS011;8463;48.094;7.970;2023-02-21T06:58:58;4.50;;;2.57;;
2408;SDS011;8463;48.094;7.970;2023-02-21T07:01:26;1.57;;;1.47;;
2408;SDS011;8463;48.094;7.970;2023-02-21T07:03:53;2.37;;;2.03;;
2408;SDS011;8463;48.094;7.970;2023-02-21T07:06:19;2.23;;;2.03;;
2408;SDS011;8463;48.094;7.970;2023-02-21T07:08:45;3.50;;;2.47;;
2408;SDS011;8463;48.094;7.970;2023-02-21T07:11:11;2.90;;;2.10;;
2408;SDS011;8463;48.094;7.970;2023-02-21T07:13:38;2.47;;;2.20;;
2408;SDS011;8463;48.094;7.970;2023-02-21T07:16:04;2.87;;;2.20;;
2408;SDS011;8463;48.094;7.970;2023-02-21T07:18:30;3.20;;;2.67;;
2408;SDS011;8463;48.094;7.970;2023-02-21T07:20:56;6.30;;;3.50;;
2408;SDS011;8463;48.094;7.970;2023-02-21T07:23:21;7.50;;;4.33;;
2408;SDS011;8463;48.094;7.970;2023-02-21T07:25:51;2.90;;;2.60;;
2408;SDS011;8463;48.094;7.970;2023-02-21T07:28:16;5.17;;;4.50;;
2408;SDS011;8463;48.094;7.970;2023-02-21T07:30:42;9.27;;;4.23;;
2408;SDS011;8463;48.094;7.970;2023-02-21T07:33:08;4.60;;;3.97;;
2408;SDS011;8463;48.094;7.970;2023-02-21T07:35:33;6.13;;;4.40;;
2408;SDS011;8463;48.094;7.970;2023-02-21T07:37:59;5.17;;;3.90;;
2408;SDS011;8463;48.094;7.970;2023-02-21T07:40:26;3.37;;;3.07;;
2408;SDS011;8463;48.094;7.970;2023-02-21T07:42:51;5.00;;;3.03;;
2408;SDS011;8463;48.094;7.970;2023-02-21T07:45:17;8.10;;;4.07;;
2408;SDS011;8463;48.094;7.970;2023-02-21T07:47:44;6.03;;;4.50;;
2408;SDS011;8463;48.094;7.970;2023-02-21T07:50:10;4.53;;;3.80;;
2408;SDS011;8463;48.094;7.970;2023-02-21T07:52:36;7.17;;;4.60;;
2408;SDS011;8463;48.094;7.970;2023-02-21T07:55:02;5.90;;;5.07;;
2408;SDS011;8463;48.094;7.970;2023-02-21T07:57:28;4.30;;;3.93;;
2408;SDS011;8463;48.094;7.970;2023-02-21T07:59:54;5.33;;;4.80;;
2408;SDS011;8463;48.094;7.970;2023-02-21T08:02:20;3.97;;;3.50;;
2408;SDS011;8463;48.094;7.970;2023-02-21T08:04:48;4.30;;;3.07;;
2408;SDS011;8463;48.094;7.970;2023-02-21T08:07:15;3.30;;;2.97;;
2408;SDS011;8463;48.094;7.970;2023-02-21T08:09:41;4.30;;;3.60;;
2408;SDS011;8463;48.094;7.970;2023-02-21T08:12:06;3.57;;;2.80;;
2408;SDS011;8463;48.094;7.970;2023-02-21T08:14:32;3.50;;;2.50;;
2408;SDS011;8463;48.094;7.970;2023-02-21T08:16:58;3.00;;;2.80;;
2408;SDS011;8463;48.094;7.970;2023-02-21T08:19:23;3.80;;;3.20;;
2408;SDS011;8463;48.094;7.970;2023-02-21T08:21:49;4.27;;;2.63;;
2408;SDS011;8463;48.094;7.970;2023-02-21T08:24:15;7.00;;;4.40;;
2408;SDS011;8463;48.094;7.970;2023-02-21T08:26:42;15.27;;;12.30;;
2408;SDS011;8463;48.094;7.970;2023-02-21T08:29:09;12.20;;;8.30;;
2408;SDS011;8463;48.094;7.970;2023-02-21T08:31:36;11.63;;;8.13;;
2408;SDS011;8463;48.094;7.970;2023-02-21T08:34:03;17.70;;;9.47;;
2408;SDS011;8463;48.094;7.970;2023-02-21T08:36:34;10.10;;;6.70;;
2408;SDS011;8463;48.094;7.970;2023-02-21T08:39:01;9.13;;;6.07;;
2408;SDS011;8463;48.094;7.970;2023-02-21T08:41:34;8.17;;;5.67;;
2408;SDS011;8463;48.094;7.970;2023-02-21T08:44:05;8.70;;;4.50;;
2408;SDS011;8463;48.094;7.970;2023-02-21T08:46:31;5.93;;;4.03;;
2408;SDS011;8463;48.094;7.970;2023-02-21T08:48:56;7.80;;;5.60;;
2408;SDS011;8463;48.094;7.970;2023-02-21T08:51:26;10.80;;;6.30;;
2408;SDS011;8463;48.094;7.970;2023-02-21T08:53:52;6.90;;;5.20;;
2408;SDS011;8463;48.094;7.970;2023-02-21T08:56:19;9.33;;;5.23;;
2408;SDS011;8463;48.094;7.970;2023-02-21T08:58:45;10.50;;;6.10;;
2408;SDS011;8463;48.094;7.970;2023-02-21T09:01:11;7.93;;;6.47;;
2408;SDS011;8463;48.094;7.970;2023-02-21T09:03:37;8.73;;;6.60;;
2408;SDS011;8463;48.094;7.970;2023-02-21T09:06:02;6.63;;;5.43;;
2408;SDS011;8463;48.094;7.970;2023-02-21T09:08:29;8.87;;;7.17;;
2408;SDS011;8463;48.094;7.970;2023-02-21T09:10:55;9.00;;;6.60;;
2408;SDS011;8463;48.094;7.970;2023-02-21T09:13:27;5.70;;;4.27;;
2408;SDS011;8463;48.094;7.970;2023-02-21T09:15:55;5.40;;;3.00;;
2408;SDS011;8463;48.094;7.970;2023-02-21T09:18:21;1.93;;;1.60;;
2408;SDS011;8463;48.094;7.970;2023-02-21T09:20:47;7.27;;;3.00;;
2408;SDS011;8463;48.094;7.970;2023-02-21T09:23:22;5.10;;;4.33;;
2408;SDS011;8463;48.094;7.970;2023-02-21T09:25:49;6.97;;;4.87;;
2408;SDS011;8463;48.094;7.970;2023-02-21T09:28:15;6.67;;;4.80;;
2408;SDS011;8463;48.094;7.970;2023-02-21T09:30:41;4.80;;;4.00;;
2408;SDS011;8463;48.094;7.970;2023-02-21T09:33:08;3.43;;;2.43;;
2408;SDS011;8463;48.094;7.970;2023-02-21T09:35:34;2.67;;;2.07;;
2408;SDS011;8463;48.094;7.970;2023-02-21T09:38:00;1.73;;;1.63;;
2408;SDS011;8463;48.094;7.970;2023-02-21T09:42:58;2.80;;;2.13;;
2408;SDS011;8463;48.094;7.970;2023-02-21T09:45:26;2.33;;;1.70;;
2408;SDS011;8463;48.094;7.970;2023-02-21T09:47:56;1.90;;;1.60;;
2408;SDS011;8463;48.094;7.970;2023-02-21T09:50:26;2.47;;;2.20;;
2408;SDS011;8463;48.094;7.970;2023-02-21T09:52:57;2.60;;;2.40;;
2408;SDS011;8463;48.094;7.970;2023-02-21T09:55:34;2.90;;;2.40;;
2408;SDS011;8463;48.094;7.970;2023-02-21T09:58:02;3.30;;;2.50;;
2408;SDS011;8463;48.094;7.970;2023-02-21T10:00:35;3.50;;;2.33;;
2408;SDS011;8463;48.094;7.970;2023-02-21T10:17:01;2.43;;;1.53;;
2408;SDS011;8463;48.094;7.970;2023-02-21T10:19:43;2.20;;;1.40;;
2408;SDS011;8463;48.094;7.970;2023-02-21T10:22:22;2.17;;;1.57;;
2408;SDS011;8463;48.094;7.970;2023-02-21T10:24:54;3.00;;;2.23;;
2408;SDS011;8463;48.094;7.970;2023-02-21T10:27:24;3.67;;;1.87;;
2408;SDS011;8463;48.094;7.970;2023-02-21T10:32:35;2.40;;;2.07;;
2408;SDS011;8463;48.094;7.970;2023-02-21T10:35:01;2.30;;;1.87;;
2408;SDS011;8463;48.094;7.970;2023-02-21T10:45:44;5.60;;;2.43;;
2408;SDS011;8463;48.094;7.970;2023-02-21T10:48:35;3.50;;;2.17;;
2408;SDS011;8463;48.094;7.970;2023-02-21T10:53:40;2.37;;;2.10;;
2408;SDS011;8463;48.094;7.970;2023-02-21T10:58:43;4.80;;;1.80;;
2408;SDS011;8463;48.094;7.970;2023-02-21T11:04:06;2.80;;;2.27;;
2408;SDS011;8463;48.094;7.970;2023-02-21T11:12:04;2.70;;;1.63;;
2408;SDS011;8463;48.094;7.970;2023-02-21T11:19:53;2.77;;;2.40;;
2408;SDS011;8463;48.094;7.970;2023-02-21T11:27:29;6.37;;;2.07;;
2408;SDS011;8463;48.094;7.970;2023-02-21T11:29:58;9.10;;;2.10;;
2408;SDS011;8463;48.094;7.970;2023-02-21T11:32:28;2.73;;;2.00;;
2408;SDS011;8463;48.094;7.970;2023-02-21T11:35:28;2.63;;;1.80;;
2408;SDS011;8463;48.094;7.970;2023-02-21T11:38:02;2.97;;;1.70;;
2408;SDS011;8463;48.094;7.970;2023-02-21T11:40:50;4.40;;;2.70;;
2408;SDS011;8463;48.094;7.970;2023-02-21T11:43:18;2.43;;;1.70;;
2408;SDS011;8463;48.094;7.970;2023-02-21T11:46:31;2.43;;;1.73;;
2408;SDS011;8463;48.094;7.970;2023-02-21T11:54:03;4.27;;;1.50;;
2408;SDS011;8463;48.094;7.970;2023-02-21T12:29:58;3.97;;;1.80;;
2408;SDS011;8463;48.094;7.970;2023-02-21T12:38:24;1.93;;;1.30;;
2408;SDS011;8463;48.094;7.970;2023-02-21T12:51:26;1.33;;;1.17;;
2408;SDS011;8463;48.094;7.970;2023-02-21T12:53:59;3.60;;;1.70;;
2408;SDS011;8463;48.094;7.970;2023-02-21T13:02:18;3.80;;;1.90;;
2408;SDS011;8463;48.094;7.970;2023-02-21T13:04:56;1.73;;;1.47;;
2408;SDS011;8463;48.094;7.970;2023-02-21T13:07:33;1.90;;;1.40;;
2408;SDS011;8463;48.094;7.970;2023-02-21T13:10:11;1.90;;;1.40;;
2408;SDS011;8463;48.094;7.970;2023-02-21T13:15:23;2.37;;;1.40;;
2408;SDS011;8463;48.094;7.970;2023-02-21T13:17:54;3.07;;;1.30;;
2408;SDS011;8463;48.094;7.970;2023-02-21T13:23:44;3.03;;;1.50;;
2408;SDS011;8463;48.094;7.970;2023-02-21T13:32:07;3.90;;;1.80;;
2408;SDS011;8463;48.094;7.970;2023-02-21T13:34:38;2.10;;;1.47;;
2408;SDS011;8463;48.094;7.970;2023-02-21T13:37:19;2.70;;;1.40;;
2408;SDS011;8463;48.094;7.970;2023-02-21T13:39:54;2.50;;;2.10;;
2408;SDS011;8463;48.094;7.970;2023-02-21T13:42:26;4.63;;;1.50;;
2408;SDS011;8463;48.094;7.970;2023-02-21T13:48:33;6.30;;;2.20;;
2408;SDS011;8463;48.094;7.970;2023-02-21T13:53:18;4.10;;;1.93;;
2408;SDS011;8463;48.094;7.970;2023-02-21T13:56:11;7.50;;;1.40;;
2408;SDS011;8463;48.094;7.970;2023-02-21T13:58:39;3.47;;;1.97;;
2408;SDS011;8463;48.094;7.970;2023-02-21T14:01:20;1.93;;;1.70;;
2408;SDS011;8463;48.094;7.970;2023-02-21T14:07:10;3.57;;;1.70;;
2408;SDS011;8463;48.094;7.970;2023-02-21T14:09:37;1.43;;;1.30;;
2408;SDS011;8463;48.094;7.970;2023-02-21T14:12:05;1.10;;;1.00;;
2408;SDS011;8463;48.094;7.970;2023-02-21T14:14:33;3.83;;;3.27;;
2408;SDS011;8463;48.094;7.970;2023-02-21T14:17:04;1.97;;;1.10;;
2408;SDS011;8463;48.094;7.970;2023-02-21T14:24:40;3.43;;;1.30;;
2408;SDS011;8463;48.094;7.970;2023-02-21T14:32:23;1.50;;;1.17;;
2408;SDS011;8463;48.094;7.970;2023-02-21T14:34:52;1.57;;;1.30;;
2408;SDS011;8463;48.094;7.970;2023-02-21T14:39:57;3.17;;;1.70;;
2408;SDS011;8463;48.094;7.970;2023-02-21T15:10:39;1.80;;;1.43;;
2408;SDS011;8463;48.094;7.970;2023-02-21T15:13:26;2.90;;;0.97;;
2408;SDS011;8463;48.094;7.970;2023-02-21T15:16:02;2.60;;;1.20;;
2408;SDS011;8463;48.094;7.970;2023-02-21T15:18:34;1.90;;;1.10;;
2408;SDS011;8463;48.094;7.970;2023-02-21T15:23:27;2.53;;;1.40;;
2408;SDS011;8463;48.094;7.970;2023-02-21T15:25:59;3.33;;;1.27;;
2408;SDS011;8463;48.094;7.970;2023-02-21T15:28:38;1.13;;;0.80;;
2408;SDS011;8463;48.094;7.970;2023-02-21T15:31:06;1.10;;;0.87;;
2408;SDS011;8463;48.094;7.970;2023-02-21T15:33:34;4.20;;;0.90;;
2408;SDS011;8463;48.094;7.970;2023-02-21T15:38:53;0.83;;;0.80;;
2408;SDS011;8463;48.094;7.970;2023-02-21T15:41:43;1.60;;;1.50;;
2408;SDS011;8463;48.094;7.970;2023-02-21T15:46:44;1.83;;;1.20;;
2408;SDS011;8463;48.094;7.970;2023-02-21T15:49:23;1.07;;;0.90;;
2408;SDS011;8463;48.094;7.970;2023-02-21T15:52:01;1.60;;;0.90;;
2408;SDS011;8463;48.094;7.970;2023-02-21T15:54:29;4.30;;;1.10;;
2408;SDS011;8463;48.094;7.970;2023-02-21T15:59:39;2.27;;;1.00;;
2408;SDS011;8463;48.094;7.970;2023-02-21T16:02:19;1.30;;;1.03;;
2408;SDS011;8463;48.094;7.970;2023-02-21T16:04:50;1.90;;;1.00;;
2408;SDS011;8463;48.094;7.970;2023-02-21T16:07:28;1.20;;;1.00;;
2408;SDS011;8463;48.094;7.970;2023-02-21T16:10:08;2.37;;;1.23;;
2408;SDS011;8463;48.094;7.970;2023-02-21T16:12:42;1.23;;;0.93;;
2408;SDS011;8463;48.094;7.970;2023-02-21T16:18:08;4.77;;;1.20;;
2408;SDS011;8463;48.094;7.970;2023-02-21T16:20:42;1.70;;;1.10;;
2408;SDS011;8463;48.094;7.970;2023-02-21T16:28:34;3.00;;;1.60;;
2408;SDS011;8463;48.094;7.970;2023-02-21T16:31:02;2.23;;;1.40;;
2408;SDS011;8463;48.094;7.970;2023-02-21T16:33:30;3.00;;;2.20;;
2408;SDS011;8463;48.094;7.970;2023-02-21T16:35:57;2.20;;;1.70;;
2408;SDS011;8463;48.094;7.970;2023-02-21T16:38:24;2.87;;;1.57;;
2408;SDS011;8463;48.094;7.970;2023-02-21T16:40:51;2.20;;;1.10;;
2408;SDS011;8463;48.094;7.970;2023-02-21T16:45:54;1.43;;;0.93;;
2408;SDS011;8463;48.094;7.970;2023-02-21T16:48:25;3.83;;;1.20;;
2408;SDS011;8463;48.094;7.970;2023-02-21T16:50:57;2.40;;;1.43;;
2408;SDS011;8463;48.094;7.970;2023-02-21T16:53:28;2.63;;;1.47;;
2408;SDS011;8463;48.094;7.970;2023-02-21T16:55:55;2.70;;;1.80;;
2408;SDS011;8463;48.094;7.970;2023-02-21T17:00:55;2.10;;;1.80;;
2408;SDS011;8463;48.094;7.970;2023-02-21T17:03:23;3.63;;;1.73;;
2408;SDS011;8463;48.094;7.970;2023-02-21T17:05:50;1.47;;;1.20;;
2408;SDS011;8463;48.094;7.970;2023-02-21T17:08:16;1.73;;;1.53;;
2408;SDS011;8463;48.094;7.970;2023-02-21T17:10:42;1.50;;;1.40;;
2408;SDS011;8463;48.094;7.970;2023-02-21T17:13:08;4.63;;;1.47;;
2408;SDS011;8463;48.094;7.970;2023-02-21T17:15:34;3.00;;;2.20;;
2408;SDS011;8463;48.094;7.970;2023-02-21T17:17:59;3.23;;;1.80;;
2408;SDS011;8463;48.094;7.970;2023-02-21T17:20:26;2.10;;;1.50;;
2408;SDS011;8463;48.094;7.970;2023-02-21T17:22:52;3.10;;;1.30;;
2408;SDS011;8463;48.094;7.970;2023-02-21T17:25:22;5.30;;;2.03;;
2408;SDS011;8463;48.094;7.970;2023-02-21T17:27:48;1.47;;;1.10;;
2408;SDS011;8463;48.094;7.970;2023-02-21T17:30:16;3.57;;;1.20;;
2408;SDS011;8463;48.094;7.970;2023-02-21T17:32:43;1.10;;;1.00;;
2408;SDS011;8463;48.094;7.970;2023-02-21T17:35:11;2.07;;;1.00;;
2408;SDS011;8463;48.094;7.970;2023-02-21T17:37:40;2.17;;;1.40;;
2408;SDS011;8463;48.094;7.970;2023-02-21T17:40:10;2.80;;;1.60;;
2408;SDS011;8463;48.094;7.970;2023-02-21T17:42:35;2.97;;;1.93;;
2408;SDS011;8463;48.094;7.970;2023-02-21T17:45:02;2.40;;;1.50;;
2408;SDS011;8463;48.094;7.970;2023-02-21T17:47:29;2.67;;;1.80;;
2408;SDS011;8463;48.094;7.970;2023-02-21T17:49:55;2.77;;;2.40;;
2408;SDS011;8463;48.094;7.970;2023-02-21T17:52:23;3.20;;;2.40;;
2408;SDS011;8463;48.094;7.970;2023-02-21T17:54:49;3.70;;;3.17;;
2408;SDS011;8463;48.094;7.970;2023-02-21T17:57:15;7.87;;;5.70;;
2408;SDS011;8463;48.094;7.970;2023-02-21T17:59:41;11.90;;;8.30;;
2408;SDS011;8463;48.094;7.970;2023-02-21T18:02:08;10.30;;;9.30;;
2408;SDS011;8463;48.094;7.970;2023-02-21T18:04:34;13.10;;;11.80;;
2408;SDS011;8463;48.094;7.970;2023-02-21T18:06:59;9.00;;;8.10;;
2408;SDS011;8463;48.094;7.970;2023-02-21T18:09:25;12.60;;;9.90;;
2408;SDS011;8463;48.094;7.970;2023-02-21T18:11:51;35.23;;;31.33;;
2408;SDS011;8463;48.094;7.970;2023-02-21T18:14:19;8.33;;;7.57;;
2408;SDS011;8463;48.094;7.970;2023-02-21T18:16:46;10.23;;;8.73;;
2408;SDS011;8463;48.094;7.970;2023-02-21T18:19:12;11.03;;;8.40;;
2408;SDS011;8463;48.094;7.970;2023-02-21T18:21:39;8.67;;;7.73;;
2408;SDS011;8463;48.094;7.970;2023-02-21T18:24:09;9.10;;;8.20;;
2408;SDS011;8463;48.094;7.970;2023-02-21T18:26:36;8.33;;;6.83;;
2408;SDS011;8463;48.094;7.970;2023-02-21T18:29:03;11.10;;;9.70;;
2408;SDS011;8463;48.094;7.970;2023-02-21T18:31:30;10.23;;;9.13;;
2408;SDS011;8463;48.094;7.970;2023-02-21T18:33:56;33.60;;;25.83;;
2408;SDS011;8463;48.094;7.970;2023-02-21T18:36:22;8.40;;;7.50;;
2408;SDS011;8463;48.094;7.970;2023-02-21T18:38:48;6.87;;;5.97;;
2408;SDS011;8463;48.094;7.970;2023-02-21T18:41:17;9.40;;;6.60;;
2408;SDS011;8463;48.094;7.970;2023-02-21T18:43:47;14.60;;;8.77;;
2408;SDS011;8463;48.094;7.970;2023-02-21T18:46:14;24.77;;;22.37;;
2408;SDS011;8463;48.094;7.970;2023-02-21T18:48:43;7.63;;;6.93;;
2408;SDS011;8463;48.094;7.970;2023-02-21T18:51:11;23.03;;;15.73;;
2408;SDS011;8463;48.094;7.970;2023-02-21T18:53:38;14.50;;;10.20;;
2408;SDS011;8463;48.094;7.970;2023-02-21T18:56:11;5.90;;;4.17;;
2408;SDS011;8463;48.094;7.970;2023-02-21T18:58:39;8.37;;;7.47;;
2408;SDS011;8463;48.094;7.970;2023-02-21T19:01:05;7.13;;;6.33;;
2408;SDS011;8463;48.094;7.970;2023-02-21T19:03:31;7.87;;;7.10;;
2408;SDS011;8463;48.094;7.970;2023-02-21T19:05:58;8.00;;;5.37;;
2408;SDS011;8463;48.094;7.970;2023-02-21T19:08:24;5.97;;;4.87;;
2408;SDS011;8463;48.094;7.970;2023-02-21T19:10:50;7.80;;;5.30;;
2408;SDS011;8463;48.094;7.970;2023-02-21T19:13:17;8.73;;;5.00;;
2408;SDS011;8463;48.094;7.970;2023-02-21T19:15:43;9.63;;;5.67;;
2408;SDS011;8463;48.094;7.970;2023-02-21T19:18:10;6.80;;;4.90;;
2408;SDS011;8463;48.094;7.970;2023-02-21T19:20:37;11.00;;;5.60;;
2408;SDS011;8463;48.094;7.970;2023-02-21T19:23:04;4.53;;;3.40;;
2408;SDS011;8463;48.094;7.970;2023-02-21T19:25:30;4.27;;;3.50;;
2408;SDS011;8463;48.094;7.970;2023-02-21T19:27:57;7.07;;;3.60;;
2408;SDS011;8463;48.094;7.970;2023-02-21T19:30:30;3.70;;;2.80;;